Longton, United Kingdom
Current Conditions -  °F | °C
As of 7:50 PM on Wednesday 28 Jan 2015 (Local Time) from EGOS Reporting Station
Broken Clouds Broken Clouds  
Wind Chill: 29°   Ceiling: 5000
Heat Index: 37°   Visibility: 6mi
Dew Point: 27°   Wind: 14mph
Humidity: 65%   Direction: 260°W
Pressure: 29.47"   Gusts: NA
Location:  52.98°N, 2.13°W
Report Text: EGOS 281950Z 26012KT 9999 FEW022 BKN050 03/M03 Q0998 BLU TEMPO 4000 -SHRASN SCT012 GRN
Loading
Personal Weather Stations






























Interactive Weather Map New forecast layout! Learn more

10-Day Weather Forecast

Advertisements
Track Severe Weather on mobile